<?xml version="1.0" encoding="UTF-8" standalone="no" ?>
<gpx xmlns="http://www.topografix.com/GPX/1/1" xmlns:xsi="http://www.w3.org/2001/XMLSchema-instance" xsi:schemaLocation="http://www.topografix.com/GPX/1/1 http://www.topografix.com/GPX/1/1/gpx.xsd" version="1.1" creator="VisuGPX - https://www.visugpx.com">
  <metadata>
    <name>Beaumont rouge</name>
  </metadata>
  <trk>
    <name><![CDATA[13841913-Beaumont rouge]]></name>
    <extensions>
      <line xmlns="http://www.topografix.com/GPX/gpx_style/0/2">
        <color>ff3300</color>
        <width>4</width>
      </line>
    </extensions>
    <trkseg>
      <trkpt lat="44.86384" lon="5.86316">
        <ele>782</ele>
        <time>2021-10-18T15:55:12Z</time>
      </trkpt>
      <trkpt lat="44.86458" lon="5.86346">
        <ele>788</ele>
        <time>2021-10-18T15:56:55Z</time>
      </trkpt>
      <trkpt lat="44.86516" lon="5.86354">
        <ele>797</ele>
        <time>2021-10-18T15:58:13Z</time>
      </trkpt>
      <trkpt lat="44.86526" lon="5.86346">
        <ele>792.6</ele>
      </trkpt>
      <trkpt lat="44.86562" lon="5.86385">
        <ele>810</ele>
        <time>2021-10-18T15:59:21Z</time>
      </trkpt>
      <trkpt lat="44.86538" lon="5.86424">
        <ele>806.7</ele>
      </trkpt>
      <trkpt lat="44.86538" lon="5.86445">
        <ele>811</ele>
        <time>2021-10-18T16:00:26Z</time>
      </trkpt>
      <trkpt lat="44.8654" lon="5.86452">
        <ele>813.2</ele>
      </trkpt>
      <trkpt lat="44.86616" lon="5.86424">
        <ele>829</ele>
        <time>2021-10-18T16:02:12Z</time>
      </trkpt>
      <trkpt lat="44.86709" lon="5.86414">
        <ele>851.4</ele>
      </trkpt>
      <trkpt lat="44.86782" lon="5.86427">
        <ele>865</ele>
        <time>2021-10-18T16:05:53Z</time>
      </trkpt>
      <trkpt lat="44.86834" lon="5.86474">
        <ele>879.3</ele>
      </trkpt>
      <trkpt lat="44.86849" lon="5.86503">
        <ele>890</ele>
        <time>2021-10-18T16:07:48Z</time>
      </trkpt>
      <trkpt lat="44.86828" lon="5.86647">
        <ele>918</ele>
        <time>2021-10-18T16:10:07Z</time>
      </trkpt>
      <trkpt lat="44.8664" lon="5.86865">
        <ele>903</ele>
        <time>2021-10-18T16:15:32Z</time>
      </trkpt>
      <trkpt lat="44.86652" lon="5.86941">
        <ele>912.5</ele>
      </trkpt>
      <trkpt lat="44.86632" lon="5.87102">
        <ele>910.8</ele>
      </trkpt>
      <trkpt lat="44.86678" lon="5.87197">
        <ele>911</ele>
      </trkpt>
      <trkpt lat="44.86746" lon="5.87237">
        <ele>935</ele>
        <time>2021-10-18T16:21:51Z</time>
      </trkpt>
      <trkpt lat="44.86701" lon="5.87327">
        <ele>914.5</ele>
      </trkpt>
      <trkpt lat="44.86663" lon="5.87355">
        <ele>909.2</ele>
      </trkpt>
      <trkpt lat="44.86631" lon="5.87396">
        <ele>902</ele>
        <time>2021-10-18T16:25:26Z</time>
      </trkpt>
      <trkpt lat="44.86622" lon="5.8754">
        <ele>913.1</ele>
      </trkpt>
      <trkpt lat="44.86585" lon="5.8766">
        <ele>905.8</ele>
      </trkpt>
      <trkpt lat="44.86583" lon="5.87732">
        <ele>910.5</ele>
      </trkpt>
      <trkpt lat="44.86572" lon="5.87827">
        <ele>916</ele>
        <time>2021-10-18T16:32:21Z</time>
      </trkpt>
      <trkpt lat="44.8657" lon="5.87853">
        <ele>917</ele>
        <time>2021-10-18T16:32:46Z</time>
      </trkpt>
      <trkpt lat="44.8659" lon="5.87897">
        <ele>930</ele>
        <time>2021-10-18T16:33:35Z</time>
      </trkpt>
      <trkpt lat="44.86597" lon="5.88082">
        <ele>953</ele>
        <time>2021-10-18T16:36:30Z</time>
      </trkpt>
      <trkpt lat="44.86676" lon="5.88369">
        <ele>1038</ele>
        <time>2021-10-18T16:41:22Z</time>
      </trkpt>
      <trkpt lat="44.86634" lon="5.88504">
        <ele>1019</ele>
        <time>2021-10-18T16:43:41Z</time>
      </trkpt>
      <trkpt lat="44.86608" lon="5.88811">
        <ele>1097</ele>
        <time>2021-10-18T16:48:33Z</time>
      </trkpt>
      <trkpt lat="44.86548" lon="5.88984">
        <ele>1096</ele>
        <time>2021-10-18T16:51:36Z</time>
      </trkpt>
      <trkpt lat="44.86594" lon="5.89202">
        <ele>1101</ele>
        <time>2021-10-18T16:55:11Z</time>
      </trkpt>
      <trkpt lat="44.86722" lon="5.8931">
        <ele>1139</ele>
        <time>2021-10-18T16:58:30Z</time>
      </trkpt>
      <trkpt lat="44.86728" lon="5.89365">
        <ele>1132</ele>
        <time>2021-10-18T16:59:22Z</time>
      </trkpt>
      <trkpt lat="44.86855" lon="5.89383">
        <ele>1169</ele>
        <time>2021-10-18T17:02:13Z</time>
      </trkpt>
      <trkpt lat="44.86773" lon="5.89446">
        <ele>1146</ele>
        <time>2021-10-18T17:04:17Z</time>
      </trkpt>
      <trkpt lat="44.86704" lon="5.89615">
        <ele>1158</ele>
        <time>2021-10-18T17:07:22Z</time>
      </trkpt>
      <trkpt lat="44.86754" lon="5.89786">
        <ele>1181.3</ele>
      </trkpt>
      <trkpt lat="44.86747" lon="5.89828">
        <ele>1185.4</ele>
      </trkpt>
      <trkpt lat="44.86761" lon="5.89861">
        <ele>1190.4</ele>
      </trkpt>
      <trkpt lat="44.86816" lon="5.89973">
        <ele>1202</ele>
        <time>2021-10-18T17:13:32Z</time>
      </trkpt>
      <trkpt lat="44.86805" lon="5.89991">
        <ele>1199.9</ele>
      </trkpt>
      <trkpt lat="44.86791" lon="5.89994">
        <ele>1198.4</ele>
      </trkpt>
      <trkpt lat="44.86774" lon="5.90051">
        <ele>1194.7</ele>
      </trkpt>
      <trkpt lat="44.86777" lon="5.90078">
        <ele>1192.4</ele>
      </trkpt>
      <trkpt lat="44.86742" lon="5.90125">
        <ele>1179.9</ele>
      </trkpt>
      <trkpt lat="44.86734" lon="5.90182">
        <ele>1170.1</ele>
      </trkpt>
      <trkpt lat="44.86744" lon="5.90212">
        <ele>1170.1</ele>
      </trkpt>
      <trkpt lat="44.86745" lon="5.90264">
        <ele>1168.8</ele>
      </trkpt>
      <trkpt lat="44.86736" lon="5.90311">
        <ele>1167.9</ele>
      </trkpt>
      <trkpt lat="44.86711" lon="5.90309">
        <ele>1168</ele>
      </trkpt>
      <trkpt lat="44.86701" lon="5.90296">
        <ele>1167.8</ele>
      </trkpt>
      <trkpt lat="44.86681" lon="5.90302">
        <ele>1170.6</ele>
      </trkpt>
      <trkpt lat="44.8666" lon="5.90335">
        <ele>1173.9</ele>
      </trkpt>
      <trkpt lat="44.8659" lon="5.90493">
        <ele>1171</ele>
        <time>2021-10-18T17:23:09Z</time>
      </trkpt>
      <trkpt lat="44.86545" lon="5.90523">
        <ele>1172.1</ele>
      </trkpt>
      <trkpt lat="44.8651" lon="5.90523">
        <ele>1174.1</ele>
      </trkpt>
      <trkpt lat="44.86539" lon="5.90569">
        <ele>1182.3</ele>
      </trkpt>
      <trkpt lat="44.86539" lon="5.90651">
        <ele>1191.8</ele>
      </trkpt>
      <trkpt lat="44.86478" lon="5.9098">
        <ele>1167</ele>
        <time>2021-10-18T17:31:13Z</time>
      </trkpt>
      <trkpt lat="44.86464" lon="5.9099">
        <ele>1148.7</ele>
      </trkpt>
      <trkpt lat="44.86451" lon="5.90979">
        <ele>1147.2</ele>
      </trkpt>
      <trkpt lat="44.86439" lon="5.90956">
        <ele>1145.5</ele>
      </trkpt>
      <trkpt lat="44.8643" lon="5.90956">
        <ele>1146.9</ele>
      </trkpt>
      <trkpt lat="44.86414" lon="5.90944">
        <ele>1147.9</ele>
      </trkpt>
      <trkpt lat="44.86386" lon="5.90862">
        <ele>1143</ele>
      </trkpt>
      <trkpt lat="44.86197" lon="5.90461">
        <ele>1157.7</ele>
      </trkpt>
      <trkpt lat="44.86178" lon="5.90353">
        <ele>1154.6</ele>
      </trkpt>
      <trkpt lat="44.86084" lon="5.90215">
        <ele>1162.7</ele>
      </trkpt>
      <trkpt lat="44.85994" lon="5.90336">
        <ele>1191.8</ele>
      </trkpt>
      <trkpt lat="44.85757" lon="5.9042">
        <ele>1195.8</ele>
      </trkpt>
      <trkpt lat="44.85578" lon="5.90467">
        <ele>1208.2</ele>
      </trkpt>
      <trkpt lat="44.85576" lon="5.90469">
        <ele>1211</ele>
        <time>2021-10-18T17:52:50Z</time>
      </trkpt>
      <trkpt lat="44.85616" lon="5.90563">
        <ele>1210.3</ele>
      </trkpt>
      <trkpt lat="44.85737" lon="5.90668">
        <ele>1224.8</ele>
      </trkpt>
      <trkpt lat="44.85858" lon="5.90697">
        <ele>1247.9</ele>
      </trkpt>
      <trkpt lat="44.86003" lon="5.90694">
        <ele>1261.7</ele>
      </trkpt>
      <trkpt lat="44.86049" lon="5.90761">
        <ele>1278</ele>
        <time>2021-10-18T18:04:19Z</time>
      </trkpt>
      <trkpt lat="44.86178" lon="5.90914">
        <ele>1264</ele>
      </trkpt>
      <trkpt lat="44.86193" lon="5.91026">
        <ele>1282.2</ele>
      </trkpt>
      <trkpt lat="44.86242" lon="5.91119">
        <ele>1274.8</ele>
      </trkpt>
      <trkpt lat="44.86323" lon="5.91388">
        <ele>1284.3</ele>
      </trkpt>
      <trkpt lat="44.86451" lon="5.91691">
        <ele>1294.1</ele>
      </trkpt>
      <trkpt lat="44.86529" lon="5.91823">
        <ele>1297.8</ele>
      </trkpt>
      <trkpt lat="44.86576" lon="5.9197">
        <ele>1308.4</ele>
      </trkpt>
      <trkpt lat="44.86574" lon="5.92123">
        <ele>1338</ele>
      </trkpt>
      <trkpt lat="44.86589" lon="5.92151">
        <ele>1343</ele>
      </trkpt>
      <trkpt lat="44.86635" lon="5.92135">
        <ele>1342.9</ele>
      </trkpt>
      <trkpt lat="44.86655" lon="5.92107">
        <ele>1333.4</ele>
      </trkpt>
      <trkpt lat="44.86699" lon="5.92096">
        <ele>1337.6</ele>
      </trkpt>
      <trkpt lat="44.86793" lon="5.9211">
        <ele>1347.3</ele>
      </trkpt>
      <trkpt lat="44.86854" lon="5.92052">
        <ele>1344.6</ele>
      </trkpt>
      <trkpt lat="44.86921" lon="5.92057">
        <ele>1352.1</ele>
      </trkpt>
      <trkpt lat="44.86963" lon="5.92091">
        <ele>1358.5</ele>
      </trkpt>
      <trkpt lat="44.87008" lon="5.92117">
        <ele>1360.5</ele>
      </trkpt>
      <trkpt lat="44.87047" lon="5.92179">
        <ele>1371.5</ele>
      </trkpt>
      <trkpt lat="44.87078" lon="5.92208">
        <ele>1371.8</ele>
      </trkpt>
      <trkpt lat="44.87106" lon="5.92265">
        <ele>1380.3</ele>
      </trkpt>
      <trkpt lat="44.87103" lon="5.92296">
        <ele>1389</ele>
      </trkpt>
      <trkpt lat="44.87127" lon="5.92338">
        <ele>1393.5</ele>
      </trkpt>
      <trkpt lat="44.87176" lon="5.92344">
        <ele>1383.7</ele>
      </trkpt>
      <trkpt lat="44.87231" lon="5.924">
        <ele>1390.4</ele>
      </trkpt>
      <trkpt lat="44.87248" lon="5.92417">
        <ele>1392.6</ele>
      </trkpt>
      <trkpt lat="44.87397" lon="5.92389">
        <ele>1377</ele>
      </trkpt>
      <trkpt lat="44.87447" lon="5.9238">
        <ele>1373.8</ele>
      </trkpt>
      <trkpt lat="44.87508" lon="5.92392">
        <ele>1369.7</ele>
      </trkpt>
      <trkpt lat="44.87543" lon="5.92371">
        <ele>1368.3</ele>
      </trkpt>
      <trkpt lat="44.87556" lon="5.92321">
        <ele>1370</ele>
      </trkpt>
      <trkpt lat="44.87639" lon="5.92317">
        <ele>1374</ele>
        <time>2021-10-18T18:48:49Z</time>
      </trkpt>
      <trkpt lat="44.87639" lon="5.92256">
        <ele>1384.3</ele>
      </trkpt>
      <trkpt lat="44.87615" lon="5.92202">
        <ele>1400.5</ele>
      </trkpt>
      <trkpt lat="44.87618" lon="5.92141">
        <ele>1406.8</ele>
      </trkpt>
      <trkpt lat="44.8764" lon="5.92083">
        <ele>1408.4</ele>
      </trkpt>
      <trkpt lat="44.87644" lon="5.92067">
        <ele>1406.9</ele>
      </trkpt>
      <trkpt lat="44.87659" lon="5.92045">
        <ele>1402.3</ele>
      </trkpt>
      <trkpt lat="44.87718" lon="5.92005">
        <ele>1386.3</ele>
      </trkpt>
      <trkpt lat="44.87775" lon="5.91941">
        <ele>1370.7</ele>
      </trkpt>
      <trkpt lat="44.87775" lon="5.91912">
        <ele>1369.9</ele>
      </trkpt>
      <trkpt lat="44.87745" lon="5.91835">
        <ele>1363.8</ele>
      </trkpt>
      <trkpt lat="44.87725" lon="5.91802">
        <ele>1362</ele>
      </trkpt>
      <trkpt lat="44.87709" lon="5.91763">
        <ele>1359.8</ele>
      </trkpt>
      <trkpt lat="44.87703" lon="5.91752">
        <ele>1359.8</ele>
      </trkpt>
      <trkpt lat="44.87717" lon="5.91701">
        <ele>1353.6</ele>
      </trkpt>
      <trkpt lat="44.87756" lon="5.91609">
        <ele>1340.8</ele>
      </trkpt>
      <trkpt lat="44.87764" lon="5.91566">
        <ele>1337.4</ele>
      </trkpt>
      <trkpt lat="44.87764" lon="5.91499">
        <ele>1327.4</ele>
      </trkpt>
      <trkpt lat="44.87764" lon="5.91475">
        <ele>1323.8</ele>
      </trkpt>
      <trkpt lat="44.87768" lon="5.91446">
        <ele>1321.8</ele>
      </trkpt>
      <trkpt lat="44.87789" lon="5.91398">
        <ele>1321.7</ele>
      </trkpt>
      <trkpt lat="44.87801" lon="5.91203">
        <ele>1319</ele>
        <time>2021-10-18T19:07:19Z</time>
      </trkpt>
      <trkpt lat="44.8777" lon="5.90915">
        <ele>1313</ele>
        <time>2021-10-18T19:11:55Z</time>
      </trkpt>
      <trkpt lat="44.87794" lon="5.90734">
        <ele>1331</ele>
        <time>2021-10-18T19:14:49Z</time>
      </trkpt>
      <trkpt lat="44.87783" lon="5.90338">
        <ele>1372</ele>
        <time>2021-10-18T19:21:03Z</time>
      </trkpt>
      <trkpt lat="44.8778" lon="5.9028">
        <ele>1379</ele>
        <time>2021-10-18T19:21:58Z</time>
      </trkpt>
      <trkpt lat="44.87754" lon="5.90261">
        <ele>1390.2</ele>
      </trkpt>
      <trkpt lat="44.87779" lon="5.90155">
        <ele>1403.4</ele>
      </trkpt>
      <trkpt lat="44.87794" lon="5.90095">
        <ele>1409.5</ele>
      </trkpt>
      <trkpt lat="44.87836" lon="5.90028">
        <ele>1408.8</ele>
      </trkpt>
      <trkpt lat="44.87833" lon="5.89951">
        <ele>1414</ele>
      </trkpt>
      <trkpt lat="44.87886" lon="5.89755">
        <ele>1425.6</ele>
      </trkpt>
      <trkpt lat="44.87881" lon="5.89599">
        <ele>1398</ele>
        <time>2021-10-18T19:32:56Z</time>
      </trkpt>
      <trkpt lat="44.8792" lon="5.89446">
        <ele>1406.2</ele>
      </trkpt>
      <trkpt lat="44.8788" lon="5.89228">
        <ele>1432.7</ele>
      </trkpt>
      <trkpt lat="44.87906" lon="5.89074">
        <ele>1419</ele>
        <time>2021-10-18T19:41:14Z</time>
      </trkpt>
      <trkpt lat="44.87881" lon="5.88868">
        <ele>1455.9</ele>
      </trkpt>
      <trkpt lat="44.87924" lon="5.88635">
        <ele>1478</ele>
        <time>2021-10-18T19:48:10Z</time>
      </trkpt>
      <trkpt lat="44.87887" lon="5.88585">
        <ele>1480</ele>
        <time>2021-10-18T19:49:18Z</time>
      </trkpt>
      <trkpt lat="44.87889" lon="5.88387">
        <ele>1463.9</ele>
      </trkpt>
      <trkpt lat="44.87922" lon="5.88217">
        <ele>1453.3</ele>
      </trkpt>
      <trkpt lat="44.87912" lon="5.88053">
        <ele>1436</ele>
      </trkpt>
      <trkpt lat="44.87957" lon="5.87939">
        <ele>1424.5</ele>
      </trkpt>
      <trkpt lat="44.87969" lon="5.8784">
        <ele>1413</ele>
        <time>2021-10-18T20:01:11Z</time>
      </trkpt>
      <trkpt lat="44.8779" lon="5.88087">
        <ele>1416</ele>
        <time>2021-10-18T20:06:45Z</time>
      </trkpt>
      <trkpt lat="44.87716" lon="5.88287">
        <ele>1417</ele>
        <time>2021-10-18T20:10:18Z</time>
      </trkpt>
      <trkpt lat="44.87658" lon="5.88323">
        <ele>1410.7</ele>
      </trkpt>
      <trkpt lat="44.87569" lon="5.88282">
        <ele>1416</ele>
        <time>2021-10-18T20:13:35Z</time>
      </trkpt>
      <trkpt lat="44.87491" lon="5.88434">
        <ele>1423</ele>
        <time>2021-10-18T20:16:32Z</time>
      </trkpt>
      <trkpt lat="44.87477" lon="5.88609">
        <ele>1411</ele>
        <time>2021-10-18T20:19:19Z</time>
      </trkpt>
      <trkpt lat="44.87483" lon="5.88897">
        <ele>1395</ele>
        <time>2021-10-18T20:23:51Z</time>
      </trkpt>
      <trkpt lat="44.87537" lon="5.89045">
        <ele>1381</ele>
        <time>2021-10-18T20:26:29Z</time>
      </trkpt>
      <trkpt lat="44.87562" lon="5.89315">
        <ele>1346</ele>
        <time>2021-10-18T20:30:46Z</time>
      </trkpt>
      <trkpt lat="44.87523" lon="5.89423">
        <ele>1339</ele>
        <time>2021-10-18T20:32:41Z</time>
      </trkpt>
      <trkpt lat="44.87334" lon="5.8947">
        <ele>1316.6</ele>
      </trkpt>
      <trkpt lat="44.87146" lon="5.89571">
        <ele>1297</ele>
        <time>2021-10-18T20:41:23Z</time>
      </trkpt>
      <trkpt lat="44.87089" lon="5.89763">
        <ele>1274.4</ele>
      </trkpt>
      <trkpt lat="44.87085" lon="5.89907">
        <ele>1257</ele>
        <time>2021-10-18T20:46:51Z</time>
      </trkpt>
      <trkpt lat="44.87037" lon="5.8993">
        <ele>1241.6</ele>
      </trkpt>
      <trkpt lat="44.87032" lon="5.89908">
        <ele>1241.4</ele>
      </trkpt>
      <trkpt lat="44.86953" lon="5.89936">
        <ele>1222.8</ele>
      </trkpt>
      <trkpt lat="44.86923" lon="5.89969">
        <ele>1216.2</ele>
      </trkpt>
      <trkpt lat="44.8688" lon="5.90002">
        <ele>1207.9</ele>
      </trkpt>
      <trkpt lat="44.86844" lon="5.90023">
        <ele>1203.2</ele>
      </trkpt>
      <trkpt lat="44.86829" lon="5.89986">
        <ele>1210</ele>
        <time>2021-10-18T20:51:47Z</time>
      </trkpt>
    </trkseg>
  </trk>
</gpx>